createdAt,value
2022-09-12T00:01:36.444Z,11.05
2022-09-12T00:04:06.829Z,7.00
2022-09-12T00:06:37.288Z,7.60
2022-09-12T00:11:37.727Z,7.85
2022-09-12T00:14:06.907Z,9.18
2022-09-12T00:16:37.147Z,9.32
2022-09-12T00:19:08.229Z,6.55
2022-09-12T00:21:38.431Z,8.40
2022-09-12T00:24:07.589Z,7.45
2022-09-12T00:26:36.289Z,5.22
2022-09-12T00:29:05.041Z,7.30
2022-09-12T00:31:33.650Z,5.85
2022-09-12T00:34:02.798Z,12.38
2022-09-12T00:36:32.990Z,5.45
2022-09-12T00:39:01.604Z,5.25
2022-09-12T00:41:31.548Z,4.82
2022-09-12T00:44:02.074Z,4.75
2022-09-12T00:46:37.318Z,6.20
2022-09-12T00:49:10.368Z,4.38
2022-09-12T00:51:45.698Z,6.50
2022-09-12T00:54:16.856Z,4.80
2022-09-12T00:56:46.361Z,4.97
2022-09-12T00:59:17.995Z,6.15
2022-09-12T01:01:47.107Z,5.55
2022-09-12T01:04:15.928Z,6.68
2022-09-12T01:06:46.216Z,9.27
2022-09-12T01:09:17.706Z,10.55
2022-09-12T01:11:48.621Z,9.00
2022-09-12T01:14:18.354Z,6.07
2022-09-12T01:16:47.397Z,4.90
2022-09-12T01:19:35.267Z,8.07
2022-09-12T01:22:16.138Z,6.63
2022-09-12T01:24:54.049Z,9.82
2022-09-12T01:27:31.662Z,4.97
2022-09-12T01:30:17.532Z,6.78
2022-09-12T01:33:18.209Z,7.75
2022-09-12T01:35:50.416Z,6.60
2022-09-12T01:38:25.253Z,9.68
2022-09-12T01:41:01.128Z,5.85
2022-09-12T01:43:34.026Z,7.20
2022-09-12T01:46:09.170Z,6.60
2022-09-12T01:48:40.563Z,7.47
2022-09-12T01:51:13.088Z,6.93
2022-09-12T01:53:45.759Z,7.90
2022-09-12T01:56:17.086Z,8.07
2022-09-12T01:58:48.164Z,10.07
2022-09-12T02:01:22.294Z,9.52
2022-09-12T02:03:56.191Z,10.98
2022-09-12T02:06:29.582Z,9.68
2022-09-12T02:09:01.281Z,6.15
2022-09-12T02:11:32.718Z,13.20
2022-09-12T02:14:04.447Z,8.80
2022-09-12T02:16:37.863Z,7.70
2022-09-12T02:19:10.213Z,10.07
2022-09-12T02:21:39.887Z,9.40
2022-09-12T02:24:09.760Z,7.15
2022-09-12T02:26:45.096Z,7.70
2022-09-12T02:29:13.722Z,4.75
2022-09-12T02:31:47.072Z,11.90
2022-09-12T02:34:27.491Z,8.98
2022-09-12T02:37:04.405Z,9.68
2022-09-12T02:39:33.130Z,8.10
2022-09-12T02:42:02.333Z,14.25
2022-09-12T02:44:31.494Z,6.25
2022-09-12T02:47:04.420Z,8.88
2022-09-12T02:49:32.668Z,8.95
2022-09-12T02:52:02.712Z,7.72
2022-09-12T02:54:31.852Z,10.15
2022-09-12T02:57:00.507Z,9.02
2022-09-12T02:59:29.402Z,12.95
2022-09-12T03:02:13.402Z,5.72
2022-09-12T03:04:55.784Z,8.15
2022-09-12T03:07:37.696Z,10.85
2022-09-12T03:10:10.814Z,8.52
2022-09-12T03:12:47.286Z,7.00
2022-09-12T03:15:24.128Z,7.50
2022-09-12T03:18:03.453Z,9.38
2022-09-12T03:20:42.155Z,7.85
2022-09-12T03:23:16.104Z,8.20
2022-09-12T03:25:47.616Z,11.10
2022-09-12T03:28:17.761Z,9.07
2022-09-12T03:30:47.619Z,6.93
2022-09-12T03:33:18.774Z,18.23
2022-09-12T03:35:48.013Z,10.60
2022-09-12T03:38:16.876Z,6.50
2022-09-12T03:40:47.797Z,9.05
2022-09-12T03:43:17.931Z,10.98
2022-09-12T03:45:46.543Z,8.18
2022-09-12T03:48:15.145Z,6.82
2022-09-12T03:50:45.121Z,12.80
2022-09-12T03:53:17.102Z,9.48
2022-09-12T03:55:45.865Z,7.43
2022-09-12T03:58:14.476Z,10.60
2022-09-12T04:00:44.372Z,6.38
2022-09-12T04:03:12.999Z,10.98
2022-09-12T04:05:41.686Z,8.80
2022-09-12T04:08:11.678Z,9.93
2022-09-12T04:10:39.959Z,19.53
2022-09-12T04:13:08.626Z,8.75
2022-09-12T04:15:37.208Z,9.13
2022-09-12T04:18:06.296Z,6.75
2022-09-12T04:20:35.025Z,11.75
2022-09-12T04:23:03.644Z,11.85
2022-09-12T04:25:33.366Z,11.98
2022-09-12T04:28:02.232Z,8.98
2022-09-12T04:30:30.905Z,9.52
2022-09-12T04:32:59.597Z,14.25
2022-09-12T04:35:28.697Z,8.50
2022-09-12T04:37:56.887Z,11.05
2022-09-12T04:40:25.628Z,10.30
2022-09-12T04:42:56.155Z,12.10
2022-09-12T04:45:24.845Z,9.98
2022-09-12T04:47:53.616Z,8.23
2022-09-12T04:50:22.727Z,9.50
2022-09-12T04:52:51.721Z,10.25
2022-09-12T04:55:20.637Z,8.63
2022-09-12T04:57:49.640Z,11.52
2022-09-12T05:00:20.719Z,8.85
2022-09-12T05:02:49.402Z,10.35
2022-09-12T05:05:18.203Z,8.50
2022-09-12T05:07:46.410Z,8.40
2022-09-12T05:10:15.093Z,13.55
2022-09-12T05:12:43.740Z,9.52
2022-09-12T05:15:12.882Z,8.13
2022-09-12T05:17:42.855Z,10.88
2022-09-12T05:20:12.907Z,10.75
2022-09-12T05:22:41.185Z,11.85
2022-09-12T05:25:10.916Z,10.10
2022-09-12T05:27:39.479Z,12.73
2022-09-12T05:30:09.518Z,10.32
2022-09-12T05:32:38.074Z,9.38
2022-09-12T05:35:08.656Z,6.40
2022-09-12T05:37:36.956Z,10.15
2022-09-12T05:40:08.647Z,9.88
2022-09-12T05:42:37.594Z,8.27
2022-09-12T05:45:07.307Z,12.73
2022-09-12T05:47:36.362Z,6.07
2022-09-12T05:50:10.814Z,22.83
2022-09-12T05:52:40.344Z,8.90
2022-09-12T05:55:09.726Z,12.43
2022-09-12T05:57:38.288Z,10.30
2022-09-12T06:00:09.831Z,12.60
2022-09-12T06:02:40.478Z,7.95
2022-09-12T06:05:09.522Z,8.07
2022-09-12T06:07:43.209Z,18.67
2022-09-12T06:10:12.041Z,8.98
2022-09-12T06:12:40.693Z,6.63
2022-09-12T06:15:10.504Z,16.77
2022-09-12T06:17:39.124Z,13.30
2022-09-12T06:20:08.881Z,12.48
2022-09-12T06:22:37.181Z,6.55
2022-09-12T06:25:09.062Z,9.88
2022-09-12T06:27:37.670Z,8.18
2022-09-12T06:30:07.548Z,11.02
2022-09-12T06:32:39.188Z,10.93
2022-09-12T06:35:08.682Z,8.95
2022-09-12T06:37:37.011Z,15.38
2022-09-12T06:40:10.276Z,9.30
2022-09-12T06:42:38.973Z,9.75
2022-09-12T06:45:11.613Z,12.68
2022-09-12T06:47:40.398Z,10.25
2022-09-12T06:50:09.927Z,14.23
2022-09-12T06:52:38.322Z,10.40
2022-09-12T06:55:09.287Z,7.20
2022-09-12T06:57:38.998Z,18.00
2022-09-12T07:00:09.295Z,23.77
2022-09-12T07:02:37.919Z,9.38
2022-09-12T07:05:08.387Z,10.77
2022-09-12T07:07:36.798Z,8.82
2022-09-12T07:10:06.915Z,15.32
2022-09-12T07:12:37.001Z,7.20
2022-09-12T07:15:06.403Z,10.68
2022-09-12T07:17:35.070Z,5.90
2022-09-12T07:20:04.063Z,10.45
2022-09-12T07:22:32.384Z,9.98
2022-09-12T07:25:01.083Z,13.77
2022-09-12T07:27:29.602Z,10.55
2022-09-12T07:30:00.553Z,8.68
2022-09-12T07:32:29.661Z,9.10
2022-09-12T07:34:58.244Z,12.77
2022-09-12T07:37:26.478Z,9.80
2022-09-12T07:39:55.773Z,6.40
2022-09-12T07:42:24.503Z,14.98
2022-09-12T07:44:53.835Z,13.20
2022-09-12T07:47:23.909Z,8.48
2022-09-12T07:49:52.990Z,9.53
2022-09-12T07:52:21.571Z,9.57
2022-09-12T07:54:50.345Z,14.68
2022-09-12T07:57:19.137Z,10.18
2022-09-12T07:59:52.885Z,9.23
2022-09-12T08:02:23.329Z,8.23
2022-09-12T08:04:52.033Z,7.35
2022-09-12T08:07:20.651Z,11.13
2022-09-12T08:09:49.326Z,12.05
2022-09-12T08:12:18.103Z,7.72
2022-09-12T08:14:46.761Z,13.95
2022-09-12T08:17:15.631Z,9.70
2022-09-12T08:19:45.258Z,10.95
2022-09-12T08:22:13.947Z,10.73
2022-09-12T08:24:44.056Z,9.65
2022-09-12T08:27:12.701Z,11.68
2022-09-12T08:29:41.336Z,8.20
2022-09-12T08:32:09.982Z,10.38
2022-09-12T08:34:38.261Z,14.50
2022-09-12T08:37:08.427Z,11.40
2022-09-12T08:39:37.244Z,11.27
2022-09-12T08:42:07.467Z,13.20
2022-09-12T08:44:49.620Z,16.58
2022-09-12T08:47:22.396Z,14.88
2022-09-12T08:49:57.628Z,12.25
2022-09-12T08:52:31.263Z,9.80
2022-09-12T08:54:59.923Z,7.78
2022-09-12T08:57:28.528Z,7.70
2022-09-12T08:59:57.212Z,13.07
2022-09-12T09:02:44.107Z,5.32
2022-09-12T09:05:21.034Z,14.27
2022-09-12T09:08:10.859Z,7.47
2022-09-12T09:10:48.927Z,6.65
2022-09-12T09:13:40.376Z,12.75
2022-09-12T09:16:15.337Z,11.85
2022-09-12T09:18:45.139Z,8.23
2022-09-12T09:21:18.934Z,13.57
2022-09-12T09:23:52.422Z,9.07
2022-09-12T09:26:26.769Z,10.13
2022-09-12T09:28:58.304Z,10.68
2022-09-12T09:31:28.415Z,7.30
2022-09-12T09:33:57.122Z,11.80
2022-09-12T09:36:34.078Z,9.07
2022-09-12T09:39:07.181Z,9.45
2022-09-12T09:41:44.985Z,5.82
2022-09-12T09:44:13.733Z,7.28
2022-09-12T09:46:42.021Z,6.28
2022-09-12T09:49:13.177Z,8.45
2022-09-12T09:51:42.878Z,8.00
2022-09-12T09:54:18.791Z,5.07
2022-09-12T09:56:47.458Z,11.98
2022-09-12T09:59:18.683Z,9.35
2022-09-12T10:01:49.279Z,11.73
2022-09-12T10:04:23.552Z,13.27
2022-09-12T10:06:56.371Z,9.55
2022-09-12T10:09:28.426Z,5.65
2022-09-12T10:11:57.925Z,4.88
2022-09-12T10:14:38.787Z,5.47
2022-09-12T10:17:33.808Z,7.05
2022-09-12T10:20:20.512Z,9.10
2022-09-12T10:22:50.567Z,9.27
2022-09-12T10:25:21.593Z,6.00
2022-09-12T10:27:55.450Z,8.70
2022-09-12T10:30:25.986Z,7.15
2022-09-12T10:32:55.590Z,8.30
2022-09-12T10:35:25.624Z,10.50
2022-09-12T10:37:55.729Z,9.77
2022-09-12T10:45:26.923Z,10.05
2022-09-12T10:47:58.252Z,10.57
2022-09-12T10:50:31.750Z,6.97
2022-09-12T10:53:18.038Z,7.65
2022-09-12T10:56:00.621Z,8.73
2022-09-12T10:58:39.972Z,5.88
2022-09-12T11:01:17.879Z,3.72
2022-09-12T11:03:59.606Z,11.25
2022-09-12T11:06:34.908Z,7.03
2022-09-12T11:09:07.638Z,7.05
2022-09-12T11:11:45.064Z,6.07
2022-09-12T11:14:25.260Z,7.43
2022-09-12T11:17:00.640Z,8.43
2022-09-12T11:19:51.115Z,4.68
2022-09-12T11:27:47.833Z,8.20
2022-09-12T11:30:18.334Z,5.95
2022-09-12T11:32:54.890Z,7.00
2022-09-12T11:35:26.015Z,4.93
2022-09-12T11:38:16.097Z,9.23
2022-09-12T11:40:47.503Z,6.25
2022-09-12T11:43:25.229Z,5.97
2022-09-12T11:45:54.511Z,8.05
2022-09-12T11:48:33.560Z,6.18
2022-09-12T11:51:04.951Z,7.65
2022-09-12T11:53:36.555Z,4.57
2022-09-12T11:56:09.544Z,7.20
2022-09-12T11:58:41.836Z,7.35
2022-09-12T12:01:14.480Z,7.60
2022-09-12T12:03:44.979Z,7.93
2022-09-12T12:08:45.075Z,9.70
2022-09-12T12:11:15.185Z,8.18
2022-09-12T12:13:49.046Z,5.97
2022-09-12T12:16:21.374Z,6.47
2022-09-12T12:18:55.738Z,7.00
2022-09-12T12:21:37.634Z,6.60
2022-09-12T12:24:18.413Z,10.27
2022-09-12T12:26:57.914Z,5.18
2022-09-12T12:29:44.032Z,5.57
2022-09-12T12:32:26.564Z,7.38
2022-09-12T12:35:37.552Z,5.15
2022-09-12T12:38:26.684Z,10.50
2022-09-12T12:40:55.350Z,7.57
2022-09-12T12:43:32.667Z,5.82
2022-09-12T12:46:09.642Z,6.60
2022-09-12T12:49:03.762Z,4.13
2022-09-12T12:51:41.698Z,6.78
2022-09-12T12:54:43.003Z,9.02
2022-09-12T12:57:52.718Z,5.43
2022-09-12T13:00:30.123Z,8.43
2022-09-12T13:03:02.695Z,8.60
2022-09-12T13:05:39.774Z,4.03
2022-09-12T13:08:11.491Z,5.97
2022-09-12T13:10:40.241Z,7.28
2022-09-12T13:13:09.855Z,6.38
2022-09-12T13:15:50.875Z,10.80
2022-09-12T13:20:55.017Z,4.82
2022-09-12T13:23:25.326Z,8.10
2022-09-12T13:25:55.393Z,10.07
2022-09-12T13:28:24.669Z,7.53
2022-09-12T13:30:59.495Z,12.10
2022-09-12T13:33:36.195Z,7.75
2022-09-12T13:36:17.627Z,7.55
2022-09-12T13:38:55.422Z,7.78
2022-09-12T13:41:41.552Z,6.35
2022-09-12T13:44:13.302Z,5.38
2022-09-12T13:46:42.869Z,6.05
2022-09-12T13:49:20.796Z,10.73
2022-09-12T13:51:57.774Z,4.22
2022-09-12T13:54:27.375Z,6.20
2022-09-12T13:56:55.926Z,5.37
2022-09-12T13:59:24.816Z,4.25
2022-09-12T14:01:53.177Z,4.85
2022-09-12T14:04:53.150Z,8.23
2022-09-12T14:07:22.806Z,4.00
2022-09-12T14:09:56.165Z,5.90
2022-09-12T14:12:28.686Z,8.32
2022-09-12T14:14:57.820Z,6.72
2022-09-12T14:17:31.596Z,7.32
2022-09-12T14:20:03.972Z,4.43
2022-09-12T14:22:34.333Z,3.60
2022-09-12T14:25:03.191Z,5.28
2022-09-12T14:27:38.294Z,6.57
2022-09-12T14:30:24.548Z,13.40
2022-09-12T14:33:07.778Z,4.40
2022-09-12T14:35:42.640Z,5.78
2022-09-12T14:38:23.432Z,3.83
2022-09-12T14:40:53.445Z,4.13
2022-09-12T14:45:55.956Z,5.50
2022-09-12T14:48:25.281Z,5.68
2022-09-12T14:50:55.629Z,5.10
2022-09-12T14:53:28.051Z,4.65
2022-09-12T14:56:00.943Z,7.07
2022-09-12T14:58:30.640Z,4.45
2022-09-12T15:01:01.988Z,5.90
2022-09-12T15:03:33.756Z,6.65
2022-09-12T15:06:05.392Z,4.47
2022-09-12T15:08:34.182Z,3.63
2022-09-12T15:11:02.817Z,6.05
2022-09-12T15:13:40.394Z,5.47
2022-09-12T15:16:10.905Z,4.55
2022-09-12T15:18:40.975Z,2.83
2022-09-12T15:21:14.211Z,4.35
2022-09-12T15:23:44.981Z,4.90
2022-09-12T15:26:15.758Z,15.68
2022-09-12T15:31:17.005Z,6.40
2022-09-12T15:33:46.001Z,4.32
2022-09-12T15:36:19.231Z,3.78
2022-09-12T15:38:49.325Z,4.43
2022-09-12T15:41:19.665Z,5.80
2022-09-12T15:43:48.799Z,5.20
2022-09-12T15:46:19.301Z,4.97
2022-09-12T15:48:48.334Z,8.15
2022-09-12T15:51:20.785Z,7.95
2022-09-12T15:53:50.369Z,5.25
2022-09-12T15:56:21.265Z,7.03
2022-09-12T15:58:58.760Z,11.43
2022-09-12T16:01:29.384Z,7.18
2022-09-12T16:03:58.670Z,9.88
2022-09-12T16:06:36.279Z,6.20
2022-09-12T16:09:05.947Z,3.42
2022-09-12T16:11:34.645Z,5.20
2022-09-12T16:14:03.889Z,4.47
2022-09-12T16:16:32.445Z,6.78
2022-09-12T16:19:01.159Z,4.45
2022-09-12T16:21:31.980Z,7.82
2022-09-12T16:24:00.600Z,6.28
2022-09-12T16:26:29.426Z,10.15
2022-09-12T16:28:58.899Z,4.68
2022-09-12T16:31:29.063Z,8.43
2022-09-12T16:33:57.850Z,7.50
2022-09-12T16:36:26.511Z,5.18
2022-09-12T16:38:56.614Z,8.35
2022-09-12T16:41:26.486Z,8.70
2022-09-12T16:43:55.309Z,6.30
2022-09-12T16:46:25.276Z,8.90
2022-09-12T16:48:56.027Z,9.75
2022-09-12T16:51:26.430Z,5.75
2022-09-12T16:53:57.284Z,5.55
2022-09-12T16:56:26.378Z,6.93
2022-09-12T16:58:55.177Z,7.30
2022-09-12T17:01:25.241Z,6.28
2022-09-12T17:03:54.776Z,8.82
2022-09-12T17:06:25.220Z,6.82
2022-09-12T17:11:26.629Z,10.82
2022-09-12T17:14:06.224Z,8.15
2022-09-12T17:16:36.627Z,7.43
2022-09-12T17:19:06.159Z,10.05
2022-09-12T17:21:35.593Z,13.65
2022-09-12T17:24:05.309Z,10.73
2022-09-12T17:26:35.279Z,6.73
2022-09-12T17:29:04.046Z,11.88
2022-09-12T17:31:32.851Z,8.77
2022-09-12T17:34:02.109Z,11.88
2022-09-12T17:36:32.061Z,9.23
2022-09-12T17:39:01.165Z,11.05
2022-09-12T17:41:31.921Z,11.15
2022-09-12T17:44:03.120Z,8.48
2022-09-12T17:46:34.938Z,12.02
2022-09-12T17:49:06.029Z,10.25
2022-09-12T17:51:34.759Z,15.18
2022-09-12T17:54:06.293Z,13.02
2022-09-12T17:56:35.806Z,8.23
2022-09-12T17:59:07.179Z,9.48
2022-09-12T18:01:54.546Z,8.95
2022-09-12T18:04:23.375Z,10.20
2022-09-12T18:06:52.869Z,10.20
2022-09-12T18:09:23.356Z,8.75
2022-09-12T18:14:22.693Z,10.75
2022-09-12T18:16:51.303Z,13.55
2022-09-12T18:19:20.909Z,11.02
2022-09-12T18:21:49.469Z,13.85
2022-09-12T18:24:19.277Z,12.07
2022-09-12T18:26:48.220Z,13.10
2022-09-12T18:29:17.359Z,12.10
2022-09-12T18:31:47.860Z,15.35
2022-09-12T18:34:17.614Z,12.63
2022-09-12T18:36:47.904Z,17.40
2022-09-12T18:39:17.226Z,15.13
2022-09-12T18:41:46.501Z,14.32
2022-09-12T18:44:15.145Z,12.65
2022-09-12T18:46:43.974Z,14.63
2022-09-12T18:49:14.325Z,16.65
2022-09-12T18:51:44.062Z,11.38
2022-09-12T18:54:14.939Z,15.13
2022-09-12T18:56:45.740Z,15.13
2022-09-12T18:59:15.163Z,10.55
2022-09-12T19:01:44.148Z,13.23
2022-09-12T19:04:16.418Z,15.65
2022-09-12T19:06:46.713Z,15.13
2022-09-12T19:09:17.048Z,11.88
2022-09-12T19:14:19.840Z,16.70
2022-09-12T19:16:48.199Z,15.15
2022-09-12T19:19:18.555Z,11.98
2022-09-12T19:24:17.160Z,15.50
2022-09-12T19:26:46.209Z,13.77
2022-09-12T19:29:16.628Z,18.13
2022-09-12T19:31:45.525Z,16.90
2022-09-12T19:34:14.499Z,20.70
2022-09-12T19:36:46.607Z,11.85
2022-09-12T19:39:16.653Z,19.02
2022-09-12T19:41:45.859Z,12.48
2022-09-12T19:44:14.538Z,11.48
2022-09-12T19:46:42.958Z,20.02
2022-09-12T19:49:13.009Z,13.93
2022-09-12T19:51:41.991Z,19.10
2022-09-12T19:54:12.324Z,16.77
2022-09-12T19:56:41.090Z,13.05
2022-09-12T19:59:10.037Z,18.50
2022-09-12T20:01:38.581Z,14.73
2022-09-12T20:04:08.019Z,13.75
2022-09-12T20:06:36.964Z,14.75
2022-09-12T20:09:05.977Z,14.02
2022-09-12T20:11:36.097Z,13.80
2022-09-12T20:14:04.807Z,14.43
2022-09-12T20:16:33.755Z,15.45
2022-09-12T20:19:06.152Z,14.13
2022-09-12T20:21:36.141Z,17.15
2022-09-12T20:24:06.957Z,12.43
2022-09-12T20:26:37.280Z,20.63
2022-09-12T20:29:06.529Z,14.73
2022-09-12T20:31:35.651Z,19.13
2022-09-12T20:34:04.607Z,12.85
2022-09-12T20:36:33.714Z,12.60
2022-09-12T20:39:03.165Z,16.92
2022-09-12T20:41:34.122Z,19.10
2022-09-12T20:44:04.742Z,22.60
2022-09-12T20:46:33.651Z,15.15
2022-09-12T20:49:02.501Z,17.63
2022-09-12T20:51:31.585Z,19.05
2022-09-12T20:54:01.475Z,14.57
2022-09-12T20:56:31.787Z,14.00
2022-09-12T20:59:00.488Z,16.92
2022-09-12T21:01:31.454Z,18.15
2022-09-12T21:04:00.958Z,16.65
2022-09-12T21:06:29.712Z,21.70
2022-09-12T21:09:00.698Z,18.20
2022-09-12T21:11:29.925Z,17.27
2022-09-12T21:13:59.164Z,18.30
2022-09-12T21:16:32.000Z,16.58
2022-09-12T21:19:00.753Z,19.67
2022-09-12T21:21:29.586Z,17.27
2022-09-12T21:24:02.437Z,18.40
2022-09-12T21:26:31.302Z,17.17
2022-09-12T21:29:00.223Z,16.88
2022-09-12T21:31:28.734Z,19.05
2022-09-12T21:33:58.979Z,23.65
2022-09-12T21:36:27.757Z,18.63
2022-09-12T21:38:59.339Z,22.35
2022-09-12T21:41:28.931Z,17.40
2022-09-12T21:43:57.358Z,21.95
2022-09-12T21:46:26.142Z,21.80
2022-09-12T21:48:55.094Z,20.98
2022-09-12T21:51:25.215Z,20.17
2022-09-12T21:53:54.693Z,20.20
2022-09-12T21:56:23.393Z,19.92
2022-09-12T21:58:51.802Z,19.45
2022-09-12T22:01:20.696Z,19.75
2022-09-12T22:03:49.599Z,18.10
2022-09-12T22:06:22.394Z,19.75
2022-09-12T22:08:52.833Z,21.05
2022-09-12T22:11:22.989Z,20.38
2022-09-12T22:13:51.281Z,20.13
2022-09-12T22:16:20.096Z,20.08
2022-09-12T22:18:50.227Z,20.73
2022-09-12T22:21:22.094Z,29.33
2022-09-12T22:24:09.646Z,20.92
2022-09-12T22:26:42.544Z,20.80
2022-09-12T22:29:11.820Z,22.98
2022-09-12T22:31:40.682Z,22.17
2022-09-12T22:34:09.469Z,21.45
2022-09-12T22:36:39.184Z,20.98
2022-09-12T22:39:09.972Z,21.23
2022-09-12T22:41:38.814Z,23.70
2022-09-12T22:44:07.722Z,21.90
2022-09-12T22:46:36.128Z,20.30
2022-09-12T22:49:05.384Z,22.55
2022-09-12T22:51:34.664Z,20.67
2022-09-12T22:54:03.547Z,22.65
2022-09-12T22:56:33.965Z,20.70
2022-09-12T23:01:31.927Z,23.33
2022-09-12T23:04:01.269Z,23.60
2022-09-12T23:06:30.131Z,23.48
2022-09-12T23:08:58.785Z,24.45
2022-09-12T23:11:27.880Z,28.42
2022-09-12T23:13:57.678Z,27.45
2022-09-12T23:16:28.455Z,22.85
2022-09-12T23:18:57.399Z,20.73
2022-09-12T23:21:26.302Z,20.98
2022-09-12T23:23:56.338Z,20.45
2022-09-12T23:26:28.263Z,18.73
2022-09-12T23:28:59.233Z,18.05
2022-09-12T23:31:30.360Z,21.75
2022-09-12T23:34:01.986Z,19.92
2022-09-12T23:36:30.863Z,21.08
2022-09-12T23:38:59.933Z,23.95
2022-09-12T23:41:28.861Z,22.70
2022-09-12T23:43:59.038Z,20.02
2022-09-12T23:46:27.512Z,22.83
2022-09-12T23:48:56.320Z,23.10
2022-09-12T23:51:25.003Z,23.25
2022-09-12T23:53:53.803Z,24.08
2022-09-12T23:56:23.110Z,26.73
2022-09-12T23:58:51.634Z,24.65
